createdAt,value
2023-03-30T00:00:51.698Z,6.30
2023-03-30T00:03:19.603Z,6.30
2023-03-30T00:05:46.637Z,6.30
2023-03-30T00:08:14.463Z,6.30
2023-03-30T00:10:44.891Z,6.30
2023-03-30T00:13:13.020Z,6.30
2023-03-30T00:15:41.212Z,6.30
2023-03-30T00:18:09.225Z,6.30
2023-03-30T00:20:37.762Z,6.30
2023-03-30T00:23:04.760Z,6.30
2023-03-30T00:25:31.638Z,6.40
2023-03-30T00:27:58.396Z,6.40
2023-03-30T00:30:25.374Z,6.40
2023-03-30T00:32:52.276Z,6.40
2023-03-30T00:35:19.629Z,6.50
2023-03-30T00:37:49.481Z,6.60
2023-03-30T00:40:21.112Z,6.80
2023-03-30T00:42:48.030Z,7.00
2023-03-30T00:45:22.456Z,7.20
2023-03-30T00:48:10.042Z,7.70
2023-03-30T00:50:46.023Z,8.10
2023-03-30T00:53:17.235Z,8.40
2023-03-30T00:55:46.624Z,8.80
2023-03-30T00:58:15.932Z,9.00
2023-03-30T01:00:47.080Z,9.10
2023-03-30T01:03:24.955Z,9.10
2023-03-30T01:05:53.746Z,9.00
2023-03-30T01:08:23.988Z,9.00
2023-03-30T01:10:52.594Z,8.90
2023-03-30T01:13:20.328Z,8.80
2023-03-30T01:16:31.568Z,8.80
2023-03-30T01:19:38.148Z,8.70
2023-03-30T01:22:25.465Z,8.70
2023-03-30T01:25:20.570Z,8.60
2023-03-30T01:27:57.153Z,8.50
2023-03-30T01:31:05.995Z,8.50
2023-03-30T01:33:57.716Z,8.50
2023-03-30T01:36:44.817Z,8.50
2023-03-30T01:39:14.499Z,8.60
2023-03-30T01:41:52.376Z,8.60
2023-03-30T01:44:34.230Z,8.60
2023-03-30T01:47:36.062Z,8.60
2023-03-30T01:50:11.802Z,8.50
2023-03-30T01:53:02.846Z,8.40
2023-03-30T01:55:45.287Z,8.40
2023-03-30T01:58:33.936Z,8.50
2023-03-30T02:01:02.823Z,8.50
2023-03-30T02:03:32.676Z,8.50
2023-03-30T02:06:09.752Z,8.40
2023-03-30T02:08:38.234Z,8.40
2023-03-30T02:11:05.437Z,8.40
2023-03-30T02:13:33.983Z,8.40
2023-03-30T02:16:07.203Z,8.50
2023-03-30T02:18:35.068Z,8.50
2023-03-30T02:21:02.236Z,8.50
2023-03-30T02:23:34.930Z,8.60
2023-03-30T02:26:02.645Z,8.70
2023-03-30T02:28:29.445Z,8.80
2023-03-30T02:30:56.783Z,8.80
2023-03-30T02:33:35.892Z,8.70
2023-03-30T02:36:23.784Z,8.70
2023-03-30T02:38:59.519Z,8.70
2023-03-30T02:42:10.099Z,8.70
2023-03-30T02:45:18.718Z,8.60
2023-03-30T02:47:58.362Z,8.60
2023-03-30T02:50:39.868Z,8.60
2023-03-30T02:53:29.738Z,8.60
2023-03-30T02:56:54.717Z,8.50
2023-03-30T02:59:36.395Z,8.50
2023-03-30T03:02:23.871Z,8.50
2023-03-30T03:04:53.481Z,8.40
2023-03-30T03:07:21.042Z,8.40
2023-03-30T03:09:48.359Z,8.40
2023-03-30T03:12:15.409Z,8.40
2023-03-30T03:14:43.198Z,8.40
2023-03-30T03:17:10.089Z,8.40
2023-03-30T03:19:37.030Z,8.40
2023-03-30T03:22:03.761Z,8.40
2023-03-30T03:24:33.908Z,8.40
2023-03-30T03:27:01.035Z,8.40
2023-03-30T03:29:27.790Z,8.40
2023-03-30T03:31:54.664Z,8.40
2023-03-30T03:34:21.356Z,8.40
2023-03-30T03:36:52.613Z,8.40
2023-03-30T03:39:19.509Z,8.30
2023-03-30T03:41:46.341Z,8.40
2023-03-30T03:44:13.180Z,8.30
2023-03-30T03:46:39.989Z,8.30
2023-03-30T03:49:06.721Z,8.30
2023-03-30T03:51:33.821Z,8.40
2023-03-30T03:54:00.761Z,8.30
2023-03-30T03:56:27.572Z,8.30
2023-03-30T03:58:54.308Z,8.40
2023-03-30T04:01:21.342Z,8.40
2023-03-30T04:03:48.108Z,8.40
2023-03-30T04:06:14.897Z,8.50
2023-03-30T04:08:41.585Z,8.50
2023-03-30T04:11:12.314Z,8.60
2023-03-30T04:13:40.052Z,8.80
2023-03-30T04:16:08.523Z,8.70
2023-03-30T04:18:35.966Z,8.80
2023-03-30T04:21:05.610Z,8.70
2023-03-30T04:23:33.997Z,8.70
2023-03-30T04:26:01.785Z,8.70
2023-03-30T04:28:33.069Z,8.70
2023-03-30T04:31:00.624Z,8.70
2023-03-30T04:33:28.111Z,8.80
2023-03-30T04:35:55.354Z,9.10
2023-03-30T04:38:22.355Z,9.10
2023-03-30T04:40:53.073Z,9.10
2023-03-30T04:43:21.397Z,9.00
2023-03-30T04:45:53.046Z,8.90
2023-03-30T04:48:20.967Z,8.80
2023-03-30T04:50:49.444Z,8.70
2023-03-30T04:53:17.861Z,8.60
2023-03-30T04:55:49.432Z,8.60
2023-03-30T04:58:16.764Z,8.60
2023-03-30T05:00:43.617Z,8.60
2023-03-30T05:03:10.921Z,8.70
2023-03-30T05:05:37.837Z,8.60
2023-03-30T05:08:05.173Z,8.60
2023-03-30T05:10:31.872Z,8.60
2023-03-30T05:12:58.607Z,8.60
2023-03-30T05:15:25.367Z,8.60
2023-03-30T05:17:52.116Z,8.60
2023-03-30T05:20:18.852Z,8.60
2023-03-30T05:22:47.038Z,8.70
2023-03-30T05:25:14.057Z,8.80
2023-03-30T05:27:40.858Z,8.70
2023-03-30T05:30:08.294Z,8.60
2023-03-30T05:32:35.250Z,8.60
2023-03-30T05:35:02.093Z,8.60
2023-03-30T05:37:28.851Z,8.60
2023-03-30T05:39:55.535Z,8.60
2023-03-30T05:42:22.584Z,8.60
2023-03-30T05:44:49.341Z,8.70
2023-03-30T05:47:16.602Z,8.70
2023-03-30T05:49:43.846Z,8.80
2023-03-30T05:52:11.639Z,8.80
2023-03-30T05:54:38.461Z,8.90
2023-03-30T05:57:05.440Z,8.90
2023-03-30T05:59:33.238Z,8.90
2023-03-30T06:02:00.687Z,9.00
2023-03-30T06:04:27.870Z,9.00
2023-03-30T06:06:54.735Z,9.00
2023-03-30T06:09:23.251Z,9.10
2023-03-30T06:11:49.926Z,9.10
2023-03-30T06:14:19.794Z,9.10
2023-03-30T06:16:46.673Z,9.10
2023-03-30T06:19:14.565Z,9.10
2023-03-30T06:21:41.261Z,9.10
2023-03-30T06:24:07.975Z,9.20
2023-03-30T06:26:34.819Z,9.20
2023-03-30T06:29:02.394Z,9.20
2023-03-30T06:31:29.350Z,9.20
2023-03-30T06:33:56.368Z,9.20
2023-03-30T06:36:23.175Z,9.30
2023-03-30T06:39:10.656Z,9.20
2023-03-30T06:41:37.353Z,9.30
2023-03-30T06:44:04.119Z,9.30
2023-03-30T06:46:30.901Z,9.40
2023-03-30T06:48:57.652Z,9.30
2023-03-30T06:51:24.483Z,9.30
2023-03-30T06:53:51.348Z,9.30
2023-03-30T06:56:18.377Z,9.40
2023-03-30T06:58:45.729Z,9.40
2023-03-30T07:01:14.038Z,9.40
2023-03-30T07:03:41.396Z,9.40
2023-03-30T07:06:09.112Z,9.40
2023-03-30T07:08:35.875Z,9.50
2023-03-30T07:11:04.475Z,9.50
2023-03-30T07:13:31.939Z,9.60
2023-03-30T07:15:58.947Z,9.60
2023-03-30T07:18:26.338Z,9.60
2023-03-30T07:20:53.313Z,9.70
2023-03-30T07:23:20.382Z,9.70
2023-03-30T07:25:47.159Z,9.70
2023-03-30T07:28:14.290Z,9.80
2023-03-30T07:30:41.433Z,9.80
2023-03-30T07:33:08.457Z,9.90
2023-03-30T07:35:35.419Z,10.00
2023-03-30T07:38:03.786Z,10.10
2023-03-30T07:40:31.302Z,10.30
2023-03-30T07:42:58.489Z,10.40
2023-03-30T07:45:25.708Z,10.60
2023-03-30T07:47:52.586Z,10.90
2023-03-30T07:50:19.452Z,11.10
2023-03-30T07:52:46.175Z,11.20
2023-03-30T07:55:13.110Z,11.30
2023-03-30T07:57:39.924Z,11.50
2023-03-30T08:00:10.106Z,11.50
2023-03-30T08:02:37.950Z,11.60
2023-03-30T08:05:05.176Z,11.60
2023-03-30T08:07:34.255Z,11.60
2023-03-30T08:10:01.350Z,11.70
2023-03-30T08:12:28.093Z,11.70
2023-03-30T08:14:55.791Z,11.80
2023-03-30T08:17:22.918Z,11.70
2023-03-30T08:19:49.756Z,11.70
2023-03-30T08:22:16.708Z,11.90
2023-03-30T08:24:43.505Z,12.10
2023-03-30T08:27:10.372Z,12.10
2023-03-30T08:29:37.196Z,12.20
2023-03-30T08:32:04.112Z,12.30
2023-03-30T08:34:30.874Z,12.30
2023-03-30T08:36:58.148Z,12.30
2023-03-30T08:39:25.119Z,12.30
2023-03-30T08:41:59.340Z,12.20
2023-03-30T08:44:41.043Z,12.20
2023-03-30T08:47:14.491Z,12.20
2023-03-30T08:49:54.728Z,12.30
2023-03-30T08:52:24.047Z,12.40
2023-03-30T08:54:52.164Z,12.30
2023-03-30T08:57:25.152Z,12.20
2023-03-30T09:00:01.135Z,12.10
2023-03-30T09:02:34.261Z,12.00
2023-03-30T09:05:32.152Z,12.00
2023-03-30T09:08:17.390Z,11.90
2023-03-30T09:10:49.564Z,11.90
2023-03-30T09:13:20.699Z,11.80
2023-03-30T09:16:11.279Z,11.70
2023-03-30T09:18:39.290Z,11.80
2023-03-30T09:21:09.949Z,11.80
2023-03-30T09:23:39.637Z,11.80
2023-03-30T09:26:16.538Z,11.70
2023-03-30T09:29:06.070Z,11.60
2023-03-30T09:31:48.006Z,11.50
2023-03-30T09:34:32.626Z,11.50
2023-03-30T09:37:07.024Z,11.70
2023-03-30T09:39:36.418Z,11.70
2023-03-30T09:42:11.591Z,11.80
2023-03-30T09:44:46.091Z,11.90
2023-03-30T09:47:27.657Z,11.90
2023-03-30T09:49:59.914Z,11.90
2023-03-30T09:52:32.349Z,11.90
2023-03-30T09:55:21.784Z,11.70
2023-03-30T09:57:51.070Z,11.60
2023-03-30T10:00:33.171Z,11.50
2023-03-30T10:03:05.664Z,11.40
2023-03-30T10:05:35.592Z,11.40
2023-03-30T10:08:19.524Z,11.30
2023-03-30T10:10:52.798Z,11.10
2023-03-30T10:13:20.021Z,11.10
2023-03-30T10:15:51.636Z,11.00
2023-03-30T10:18:18.380Z,11.00
2023-03-30T10:20:55.145Z,10.90
2023-03-30T10:23:24.385Z,11.00
2023-03-30T10:25:52.011Z,10.90
2023-03-30T10:28:37.561Z,10.80
2023-03-30T10:31:15.538Z,10.80
2023-03-30T10:33:43.876Z,10.80
2023-03-30T10:36:13.364Z,10.80
2023-03-30T10:38:42.040Z,10.70
2023-03-30T10:41:15.600Z,10.80
2023-03-30T10:43:43.735Z,10.80
2023-03-30T10:46:20.372Z,10.90
2023-03-30T10:49:04.073Z,11.00
2023-03-30T10:52:12.771Z,11.20
2023-03-30T10:55:04.205Z,11.50
2023-03-30T10:57:59.984Z,11.60
2023-03-30T11:00:53.619Z,11.80
2023-03-30T11:03:27.449Z,12.10
2023-03-30T11:05:58.756Z,12.10
2023-03-30T11:08:31.008Z,12.30
2023-03-30T11:10:59.971Z,12.20
2023-03-30T11:13:34.310Z,12.20
2023-03-30T11:16:16.420Z,12.30
2023-03-30T11:18:53.293Z,12.30
2023-03-30T11:21:37.135Z,12.30
2023-03-30T11:24:19.745Z,12.10
2023-03-30T11:27:17.428Z,12.00
2023-03-30T11:30:02.399Z,12.00
2023-03-30T11:32:42.375Z,11.90
2023-03-30T11:35:42.927Z,11.90
2023-03-30T11:38:13.650Z,11.90
2023-03-30T11:40:48.654Z,12.00
2023-03-30T11:43:22.698Z,12.20
2023-03-30T11:46:02.777Z,12.20
2023-03-30T11:49:08.500Z,12.30
2023-03-30T11:51:59.089Z,12.30
2023-03-30T11:54:56.067Z,12.20
2023-03-30T11:57:52.448Z,12.10
2023-03-30T12:01:09.135Z,12.10
2023-03-30T12:03:45.328Z,12.00
2023-03-30T12:06:34.804Z,12.00
2023-03-30T12:09:20.808Z,11.90
2023-03-30T12:11:50.419Z,11.90
2023-03-30T12:14:25.761Z,11.90
2023-03-30T12:16:57.424Z,11.90
2023-03-30T12:19:55.186Z,12.00
2023-03-30T12:22:41.058Z,12.00
2023-03-30T12:25:26.523Z,12.00
2023-03-30T12:28:17.454Z,12.10
2023-03-30T12:30:56.496Z,12.10
2023-03-30T12:33:35.945Z,12.10
2023-03-30T12:36:38.023Z,12.10
2023-03-30T12:39:12.974Z,12.20
2023-03-30T12:41:48.718Z,12.30
2023-03-30T12:44:40.278Z,12.50
2023-03-30T12:47:27.969Z,12.50
2023-03-30T12:50:00.937Z,12.50
2023-03-30T12:53:15.890Z,12.50
2023-03-30T12:56:04.139Z,12.50
2023-03-30T12:58:57.623Z,12.60
2023-03-30T13:02:03.044Z,12.60
2023-03-30T13:04:37.585Z,12.70
2023-03-30T13:07:10.622Z,12.60
2023-03-30T13:10:00.335Z,12.60
2023-03-30T13:12:31.786Z,12.50
2023-03-30T13:15:19.619Z,12.60
2023-03-30T13:18:12.664Z,12.60
2023-03-30T13:20:48.243Z,12.60
2023-03-30T13:23:14.944Z,12.60
2023-03-30T13:25:51.465Z,12.70
2023-03-30T13:28:48.289Z,12.70
2023-03-30T13:31:29.585Z,12.70
2023-03-30T13:34:12.043Z,13.10
2023-03-30T13:37:09.743Z,13.60
2023-03-30T13:39:48.359Z,13.50
2023-03-30T13:42:38.375Z,13.40
2023-03-30T13:45:13.907Z,13.30
2023-03-30T13:48:12.629Z,13.30
2023-03-30T13:50:44.517Z,13.30
2023-03-30T13:53:15.681Z,13.30
2023-03-30T13:55:45.286Z,13.40
2023-03-30T13:58:20.069Z,13.40
2023-03-30T14:01:12.236Z,13.80
2023-03-30T14:03:51.500Z,13.90
2023-03-30T14:06:22.633Z,14.10
2023-03-30T14:08:57.654Z,14.10
2023-03-30T14:11:35.258Z,13.90
2023-03-30T14:14:04.102Z,13.90
2023-03-30T14:16:40.821Z,14.20
2023-03-30T14:19:15.448Z,14.10
2023-03-30T14:21:46.762Z,14.00
2023-03-30T14:24:20.045Z,13.90
2023-03-30T14:26:48.173Z,13.80
2023-03-30T14:29:30.510Z,13.60
2023-03-30T14:32:08.925Z,13.50
2023-03-30T14:34:37.429Z,13.40
2023-03-30T14:37:07.757Z,13.90
2023-03-30T14:39:44.459Z,14.40
2023-03-30T14:42:27.652Z,14.60
2023-03-30T14:44:57.020Z,14.40
2023-03-30T14:47:28.670Z,14.60
2023-03-30T14:49:59.006Z,14.60
2023-03-30T14:52:32.261Z,14.60
2023-03-30T14:55:07.451Z,14.70
2023-03-30T14:57:38.719Z,14.70
2023-03-30T15:00:17.030Z,14.40
2023-03-30T15:02:45.484Z,14.30
2023-03-30T15:05:16.560Z,14.40
2023-03-30T15:07:46.325Z,14.40
2023-03-30T15:10:44.148Z,14.60
2023-03-30T15:13:20.584Z,14.50
2023-03-30T15:15:47.397Z,14.50
2023-03-30T15:18:21.731Z,14.60
2023-03-30T15:20:48.645Z,14.40
2023-03-30T15:23:16.390Z,14.40
2023-03-30T15:25:44.477Z,14.40
2023-03-30T15:28:20.564Z,14.40
2023-03-30T15:30:51.888Z,14.00
2023-03-30T15:33:25.118Z,13.80
2023-03-30T15:35:53.749Z,13.70
2023-03-30T15:38:31.287Z,13.70
2023-03-30T15:40:58.137Z,13.70
2023-03-30T15:43:30.204Z,13.70
2023-03-30T15:46:02.199Z,13.80
2023-03-30T15:48:45.341Z,13.70
2023-03-30T15:51:16.808Z,13.70
2023-03-30T15:53:54.358Z,13.60
2023-03-30T15:56:29.373Z,13.50
2023-03-30T15:58:58.275Z,13.60
2023-03-30T16:01:40.030Z,13.70
2023-03-30T16:04:08.060Z,13.70
2023-03-30T16:06:35.151Z,13.70
2023-03-30T16:09:02.065Z,13.60
2023-03-30T16:11:29.179Z,13.50
2023-03-30T16:13:56.065Z,13.40
2023-03-30T16:16:22.847Z,13.40
2023-03-30T16:18:49.651Z,13.30
2023-03-30T16:21:18.435Z,13.20
2023-03-30T16:23:45.357Z,13.20
2023-03-30T16:26:12.868Z,13.20
2023-03-30T16:28:42.571Z,13.20
2023-03-30T16:31:18.742Z,13.30
2023-03-30T16:33:45.672Z,13.30
2023-03-30T16:36:15.886Z,13.20
2023-03-30T16:38:43.109Z,13.30
2023-03-30T16:41:19.998Z,13.20
2023-03-30T16:43:47.471Z,13.10
2023-03-30T16:46:16.730Z,13.00
2023-03-30T16:48:43.580Z,12.90
2023-03-30T16:51:11.891Z,12.80
2023-03-30T16:53:38.722Z,12.70
2023-03-30T16:56:05.766Z,12.60
2023-03-30T16:58:32.528Z,12.40
2023-03-30T17:01:04.148Z,12.40
2023-03-30T17:03:31.811Z,12.30
2023-03-30T17:05:58.888Z,12.20
2023-03-30T17:08:28.511Z,12.10
2023-03-30T17:10:59.703Z,11.90
2023-03-30T17:13:26.999Z,11.90
2023-03-30T17:15:53.824Z,11.90
2023-03-30T17:18:24.888Z,11.80
2023-03-30T17:20:53.911Z,11.80
2023-03-30T17:23:23.042Z,11.70
2023-03-30T17:25:51.094Z,11.60
2023-03-30T17:28:22.906Z,11.60
2023-03-30T17:30:51.198Z,11.50
2023-03-30T17:33:19.187Z,11.50
2023-03-30T17:35:50.521Z,11.30
2023-03-30T17:38:17.733Z,11.30
2023-03-30T17:40:46.088Z,11.30
2023-03-30T17:43:12.997Z,11.30
2023-03-30T17:45:40.282Z,11.30
2023-03-30T17:48:12.368Z,11.20
2023-03-30T17:50:43.576Z,11.10
2023-03-30T17:53:16.604Z,11.00
2023-03-30T17:55:48.168Z,11.00
2023-03-30T17:58:21.991Z,10.90
2023-03-30T18:00:50.394Z,10.70
2023-03-30T18:03:19.470Z,10.60
2023-03-30T18:05:47.798Z,10.50
2023-03-30T18:08:17.756Z,10.30
2023-03-30T18:10:48.032Z,10.20
2023-03-30T18:13:19.250Z,10.20
2023-03-30T18:15:49.323Z,10.00
2023-03-30T18:18:24.267Z,10.00
2023-03-30T18:20:53.057Z,9.90
2023-03-30T18:23:20.318Z,9.80
2023-03-30T18:25:48.167Z,9.70
2023-03-30T18:28:21.330Z,9.60
2023-03-30T18:30:48.894Z,9.50
2023-03-30T18:33:19.160Z,9.40
2023-03-30T18:35:47.933Z,9.30
2023-03-30T18:38:17.907Z,9.10
2023-03-30T18:40:49.263Z,9.10
2023-03-30T18:43:16.609Z,9.00
2023-03-30T18:45:46.241Z,9.00
2023-03-30T18:48:15.301Z,9.00
2023-03-30T18:50:59.990Z,8.90
2023-03-30T18:53:28.401Z,8.90
2023-03-30T18:56:00.567Z,8.80
2023-03-30T18:58:41.728Z,8.70
2023-03-30T19:01:09.089Z,8.50
2023-03-30T19:03:35.852Z,8.40
2023-03-30T19:06:02.771Z,8.40
2023-03-30T19:08:29.635Z,8.30
2023-03-30T19:10:57.700Z,8.30
2023-03-30T19:13:26.273Z,8.20
2023-03-30T19:15:53.815Z,8.20
2023-03-30T19:18:20.892Z,8.10
2023-03-30T19:20:49.929Z,8.10
2023-03-30T19:23:18.014Z,8.00
2023-03-30T19:25:45.879Z,7.90
2023-03-30T19:28:14.987Z,7.90
2023-03-30T19:30:42.334Z,7.80
2023-03-30T19:33:12.285Z,7.80
2023-03-30T19:35:43.985Z,7.60
2023-03-30T19:38:10.812Z,7.60
2023-03-30T19:40:41.133Z,7.60
2023-03-30T19:43:09.805Z,7.50
2023-03-30T19:45:36.820Z,7.40
2023-03-30T19:48:04.055Z,7.40
2023-03-30T19:50:31.733Z,7.30
2023-03-30T19:52:59.475Z,7.20
2023-03-30T19:55:26.421Z,7.10
2023-03-30T19:57:53.313Z,7.10
2023-03-30T20:00:20.675Z,7.00
2023-03-30T20:02:50.688Z,6.90
2023-03-30T20:05:18.336Z,6.80
2023-03-30T20:07:45.577Z,6.70
2023-03-30T20:10:16.595Z,6.60
2023-03-30T20:12:43.660Z,6.60
2023-03-30T20:15:11.280Z,6.50
2023-03-30T20:17:39.115Z,6.40
2023-03-30T20:20:09.163Z,6.40
2023-03-30T20:22:37.604Z,6.30
2023-03-30T20:25:07.524Z,6.30
2023-03-30T20:27:35.832Z,6.30
2023-03-30T20:30:04.227Z,6.30
2023-03-30T20:32:31.166Z,6.20
2023-03-30T20:34:58.177Z,6.20
2023-03-30T20:37:24.933Z,6.10
2023-03-30T20:39:51.782Z,6.10
2023-03-30T20:42:25.814Z,6.10
2023-03-30T20:44:53.387Z,6.00
2023-03-30T20:47:23.314Z,6.00
2023-03-30T20:49:50.262Z,5.90
2023-03-30T20:52:17.086Z,5.90
2023-03-30T20:54:44.702Z,5.80
2023-03-30T20:57:11.858Z,5.80
2023-03-30T20:59:39.532Z,5.80
2023-03-30T21:02:06.956Z,5.70
2023-03-30T21:04:34.096Z,5.70
2023-03-30T21:07:00.924Z,5.70
2023-03-30T21:09:27.981Z,5.60
2023-03-30T21:11:54.733Z,5.60
2023-03-30T21:14:23.720Z,5.50
2023-03-30T21:16:50.458Z,5.50
2023-03-30T21:19:17.246Z,5.40
2023-03-30T21:21:44.053Z,5.40
2023-03-30T21:24:11.543Z,5.40
2023-03-30T21:26:38.534Z,5.30
2023-03-30T21:29:05.963Z,5.20
2023-03-30T21:31:33.013Z,5.20
2023-03-30T21:34:00.139Z,5.10
2023-03-30T21:36:27.312Z,5.10
2023-03-30T21:38:56.074Z,5.00
2023-03-30T21:41:24.196Z,5.00
2023-03-30T21:43:51.025Z,5.00
2023-03-30T21:46:23.105Z,5.00
2023-03-30T21:48:53.727Z,5.00
2023-03-30T21:51:27.006Z,5.00
2023-03-30T21:53:54.885Z,4.90
2023-03-30T21:56:24.010Z,4.80
2023-03-30T21:58:50.954Z,4.80
2023-03-30T22:01:19.324Z,4.80
2023-03-30T22:03:46.393Z,4.80
2023-03-30T22:06:16.088Z,4.70
2023-03-30T22:08:45.190Z,4.70
2023-03-30T22:11:20.953Z,4.60
2023-03-30T22:13:48.960Z,4.60
2023-03-30T22:16:18.624Z,4.50
2023-03-30T22:18:45.969Z,4.50
2023-03-30T22:21:15.546Z,4.50
2023-03-30T22:23:42.327Z,4.40
2023-03-30T22:26:10.173Z,4.40
2023-03-30T22:28:37.011Z,4.40
2023-03-30T22:31:08.115Z,4.40
2023-03-30T22:33:35.335Z,4.40
2023-03-30T22:36:03.255Z,4.40
2023-03-30T22:38:30.603Z,4.40
2023-03-30T22:41:07.340Z,4.40
2023-03-30T22:43:35.720Z,4.40
2023-03-30T22:46:03.752Z,4.40
2023-03-30T22:48:30.808Z,4.40
2023-03-30T22:51:02.143Z,4.30
2023-03-30T22:53:32.817Z,4.30
2023-03-30T22:55:59.892Z,4.30
2023-03-30T22:58:27.156Z,4.30
2023-03-30T23:01:01.024Z,4.30
2023-03-30T23:03:28.292Z,4.20
2023-03-30T23:05:55.940Z,4.30
2023-03-30T23:08:23.917Z,4.20
2023-03-30T23:10:53.864Z,4.20
2023-03-30T23:13:20.553Z,4.20
2023-03-30T23:15:48.702Z,4.20
2023-03-30T23:18:16.022Z,4.20
2023-03-30T23:20:46.678Z,4.20
2023-03-30T23:23:14.719Z,4.20
2023-03-30T23:25:51.748Z,4.20
2023-03-30T23:28:18.924Z,4.20
2023-03-30T23:30:46.413Z,4.20
2023-03-30T23:33:13.537Z,4.20
2023-03-30T23:35:47.246Z,4.10
2023-03-30T23:38:14.030Z,4.20
2023-03-30T23:40:40.974Z,4.20
2023-03-30T23:43:07.736Z,4.20
2023-03-30T23:45:34.604Z,4.20
2023-03-30T23:48:01.318Z,4.10
2023-03-30T23:50:29.013Z,4.10
2023-03-30T23:52:56.327Z,4.10
2023-03-30T23:55:24.566Z,4.00
2023-03-30T23:57:51.309Z,4.00
